Enter the Airport ICAO Code

Search by Airport or City

Current Weather

ZGGG | Guangzhou Baiyun International Airport

Guangzhou, Guangdong, China

Last Update 18 Minutes Ago

Mostly Cloudy Sky

Temperature of 26 ºC

Light Winds from South

Temperature

26 ºC

Dew Point Temperature

16 ºC

Relative Humidity

54.28 %

Wind Direction

South (180º, Ranging from 150º to 220º)

Wind Velocity

7 km/h (2 kt)

Gusts

None

Visibility

Reduced to 8.0 Kilometers

Sea Level Pressure

1015 hPa (Hectopascals)

Layers of Clouds

60% to 90% of Sky Covered from 1402 mts (4600 ft) Above Ground Level.

METAR ZGGG 160700Z 18002MPS 150V220 8000 BKN046 26/16 Q1015 NOSIG

Weather Forecast

ZGGG | Guangzhou Baiyun International Airport

Guangzhou, Guangdong, China

Forecast valid for the next 23 Hours

From now on it is expected:

Mostly Cloudy Sky

Light to Moderate Winds from SouthEast

In 14 to 15 hours it is expected the begining of:

Mist

Maximum Temperature

26 ºC in 0 Hours

Minimum Temperature

18 ºC in 15 Hours

TAF ZGGG 160306Z 1606/1706 15003MPS 6000 BKN030 TX26/1607Z TN18/1622Z BECMG 1621/1622 4000 BR BECMG 1701/1702 6000